»·PEaware :: AAY3 KFAT-KLAS

AAY3 :: KFAT-KLAS

FLIGHT INFORMATION

Flight Status: Arrived
Operator:
Allegiant Air
More flights by this operator :: More flights under this callsign
Pilot: Patricio R. (14780)
Aircraft: AIRBUS A320
(A320)
More flights by this aircraft type
Origin: KFAT Fresno Yosemite Intl
United States
Destination: KLAS McCarran Intl
United States
More flights between these airports :: More routes between these airports
Route: +BTY SUNST4
File this flight plan on PilotEdge
Remarks: PBN / A1B1C1D1O1S1 DOF / 180915 REG / FFA320 EET / KZLA0022 OPR / AAY PER / C RMK / TCAS SIMBRIEF
Altitude:
(Current/Filed)
27,000ft
Speed:
(Current/Filed)
464kts
Departed: 15-Sep-18 01:29 PM
Arrived: 15-Sep-18 02:20 PM
Distance/Time
Traveled:
224nm/0:50
Distance/Time
To Go:
Arrived

Flight Plot

Page will automatically refresh every two minutes.

Flight plan parsing failed; only flown route is shown


Map Options




Map Legend


Flown Route
Filed Route
Departure Airport
Arrival Airport
Navaid (VOR, NDB)
Fix

Horizontal Profiles

Position Reports

Time Latitude Longitude Heading Altitude Ground
Speed
15-Sep-18 13:14 36.771389 -119.717759 305 334ft 0kts
15-Sep-18 13:15 36.771389 -119.717759 305 334ft 0kts
15-Sep-18 13:16 36.771389 -119.717759 305 334ft 0kts
15-Sep-18 13:17 36.771389 -119.717759 305 334ft 0kts
15-Sep-18 13:18 36.771389 -119.717759 305 334ft 0kts
15-Sep-18 13:19 36.771389 -119.717759 305 334ft 0kts
15-Sep-18 13:20 36.771389 -119.717759 305 334ft 0kts
15-Sep-18 13:21 36.771389 -119.717759 305 334ft 0kts
15-Sep-18 13:22 36.771389 -119.717759 305 334ft 0kts
15-Sep-18 13:23 36.771389 -119.717759 305 334ft 0kts
15-Sep-18 13:24 36.771388 -119.717758 305 334ft 0kts
15-Sep-18 13:25 36.771089 -119.717307 340 334ft 2kts
15-Sep-18 13:26 36.770802 -119.717378 35 333ft 0kts
15-Sep-18 13:27 36.770830 -119.717352 35 333ft 3kts
15-Sep-18 13:28 36.771309 -119.714354 125 335ft 14kts
15-Sep-18 13:29 36.768470 -119.709389 125 335ft 18kts
15-Sep-18 13:30 36.767600 -119.705237 87 337ft 9kts
15-Sep-18 13:31 36.772238 -119.709476 305 337ft 117kts
15-Sep-18 13:32 36.800419 -119.758263 305 3497ft 209kts
15-Sep-18 13:33 36.841485 -119.826362 305 7091ft 273kts
15-Sep-18 13:34 36.905809 -119.873301 9 10542ft 323kts
15-Sep-18 13:35 36.965854 -119.804250 57 12028ft 394kts
15-Sep-18 13:36 37.019577 -119.658749 96 15380ft 405kts
15-Sep-18 13:37 37.012176 -119.540018 99 17524ft 420kts
15-Sep-18 13:38 37.000934 -119.365836 100 20166ft 442kts
15-Sep-18 13:39 36.992467 -119.236941 101 21828ft 456kts
15-Sep-18 13:40 36.979844 -119.048990 101 23903ft 475kts
15-Sep-18 13:41 36.968416 -118.881084 101 25444ft 492kts
15-Sep-18 13:42 36.958162 -118.737743 101 26653ft 504kts
15-Sep-18 13:43 36.945702 -118.562198 101 26950ft 513kts
15-Sep-18 13:44 36.932854 -118.384952 101 26951ft 513kts
15-Sep-18 13:45 36.919858 -118.209886 101 26952ft 512kts
15-Sep-18 13:46 36.906434 -118.032720 101 26949ft 512kts
15-Sep-18 13:47 36.892758 -117.855870 101 26954ft 512kts
15-Sep-18 13:48 36.878924 -117.680431 101 26957ft 513kts
15-Sep-18 13:49 36.864749 -117.504009 101 26958ft 513kts
15-Sep-18 13:50 36.850428 -117.329044 102 26957ft 512kts
15-Sep-18 13:51 36.835740 -117.152769 102 26967ft 510kts
15-Sep-18 13:52 36.820925 -116.978080 102 27037ft 506kts
15-Sep-18 13:53 36.805298 -116.805834 107 27087ft 492kts
15-Sep-18 13:54 36.742083 -116.664079 138 26986ft 460kts
15-Sep-18 13:55 36.658131 -116.544537 137 26862ft 462kts
15-Sep-18 13:56 36.573771 -116.424751 137 25843ft 456kts
15-Sep-18 13:57 36.492423 -116.309594 138 23369ft 436kts
15-Sep-18 13:58 36.413972 -116.199028 137 20767ft 419kts
15-Sep-18 13:59 36.338749 -116.093358 137 18231ft 401kts
15-Sep-18 14:00 36.268084 -115.994287 137 16694ft 360kts
15-Sep-18 14:01 36.206774 -115.908313 135 16059ft 311kts
15-Sep-18 14:02 36.171663 -115.809871 118 15091ft 314kts
15-Sep-18 14:03 36.139566 -115.710162 118 14077ft 310kts
15-Sep-18 14:04 36.107806 -115.611766 118 13079ft 306kts
15-Sep-18 14:05 36.076359 -115.514612 117 12097ft 302kts
15-Sep-18 14:06 36.045498 -115.419523 117 11233ft 289kts
15-Sep-18 14:07 36.027757 -115.328588 101 10465ft 276kts
15-Sep-18 14:08 36.020985 -115.235219 101 9400ft 270kts
15-Sep-18 14:09 36.014570 -115.143562 100 8322ft 263kts
15-Sep-18 14:10 36.008858 -115.057318 100 8047ft 252kts
15-Sep-18 14:11 36.003832 -114.971931 100 8031ft 246kts
15-Sep-18 14:12 35.998801 -114.888250 100 8028ft 245kts
15-Sep-18 14:13 35.993603 -114.804190 100 8027ft 246kts
15-Sep-18 14:14 35.994874 -114.717221 61 7850ft 266kts
15-Sep-18 14:15 36.053889 -114.711727 297 7205ft 226kts
15-Sep-18 14:16 36.074331 -114.780704 266 6349ft 207kts
15-Sep-18 14:17 36.074281 -114.851043 263 5512ft 203kts
15-Sep-18 14:18 36.074117 -114.920864 263 5008ft 205kts
15-Sep-18 14:19 36.073920 -114.992031 264 4203ft 210kts
15-Sep-18 14:20 36.073778 -115.061355 264 3105ft 172kts
15-Sep-18 14:21 36.073714 -115.109100 262 2320ft 125kts
15-Sep-18 14:22 36.073924 -115.143929 286 2096ft 36kts
15-Sep-18 14:23 36.076882 -115.146469 359 2102ft 13kts
15-Sep-18 14:24 36.079562 -115.148420 334 2105ft 15kts
15-Sep-18 14:25 36.080993 -115.151332 258 2114ft 9kts
15-Sep-18 14:26 36.082277 -115.154357 335 2122ft 16kts
15-Sep-18 14:27 36.084948 -115.154958 49 2119ft 4kts
15-Sep-18 14:28 36.085040 -115.154822 50 2118ft 0kts

Navigation Log

Ident Type
Flight plan parsing failed, navigation log unavailable